sensor_id;sensor_type;location;lat;lon;timestamp;P1;durP1;ratioP1;P2;durP2;ratioP2
29214;SDS011;16252;49.816;7.964;2023-05-02T00:01:26;3.58;;;1.75;;
29214;SDS011;16252;49.816;7.964;2023-05-02T00:03:51;1.95;;;1.77;;
29214;SDS011;16252;49.816;7.964;2023-05-02T00:06:17;2.85;;;1.80;;
29214;SDS011;16252;49.816;7.964;2023-05-02T00:08:42;2.60;;;1.77;;
29214;SDS011;16252;49.816;7.964;2023-05-02T00:11:08;2.17;;;1.98;;
29214;SDS011;16252;49.816;7.964;2023-05-02T00:13:33;2.28;;;2.08;;
29214;SDS011;16252;49.816;7.964;2023-05-02T00:15:58;2.40;;;1.98;;
29214;SDS011;16252;49.816;7.964;2023-05-02T00:18:24;2.60;;;2.22;;
29214;SDS011;16252;49.816;7.964;2023-05-02T00:20:49;2.08;;;1.90;;
29214;SDS011;16252;49.816;7.964;2023-05-02T00:23:14;2.15;;;1.95;;
29214;SDS011;16252;49.816;7.964;2023-05-02T00:25:43;2.20;;;2.00;;
29214;SDS011;16252;49.816;7.964;2023-05-02T00:28:10;3.28;;;2.10;;
29214;SDS011;16252;49.816;7.964;2023-05-02T00:30:35;2.17;;;2.00;;
29214;SDS011;16252;49.816;7.964;2023-05-02T00:33:00;2.47;;;2.28;;
29214;SDS011;16252;49.816;7.964;2023-05-02T00:35:26;3.08;;;2.38;;
29214;SDS011;16252;49.816;7.964;2023-05-02T00:37:51;4.30;;;2.17;;
29214;SDS011;16252;49.816;7.964;2023-05-02T00:40:16;2.47;;;2.13;;
29214;SDS011;16252;49.816;7.964;2023-05-02T00:42:42;2.25;;;2.00;;
29214;SDS011;16252;49.816;7.964;2023-05-02T00:45:07;2.38;;;2.17;;
29214;SDS011;16252;49.816;7.964;2023-05-02T00:47:32;2.40;;;2.20;;
29214;SDS011;16252;49.816;7.964;2023-05-02T00:49:58;2.45;;;2.13;;
29214;SDS011;16252;49.816;7.964;2023-05-02T00:52:24;3.45;;;2.15;;
29214;SDS011;16252;49.816;7.964;2023-05-02T00:54:50;2.60;;;2.33;;
29214;SDS011;16252;49.816;7.964;2023-05-02T00:57:16;2.35;;;2.13;;
29214;SDS011;16252;49.816;7.964;2023-05-02T00:59:41;2.95;;;2.65;;
29214;SDS011;16252;49.816;7.964;2023-05-02T01:13:02;3.20;;;2.42;;
29214;SDS011;16252;49.816;7.964;2023-05-02T01:15:32;2.65;;;2.45;;
29214;SDS011;16252;49.816;7.964;2023-05-02T01:18:02;3.35;;;2.70;;
29214;SDS011;16252;49.816;7.964;2023-05-02T01:20:29;2.92;;;2.40;;
29214;SDS011;16252;49.816;7.964;2023-05-02T01:23:01;2.40;;;2.20;;
29214;SDS011;16252;49.816;7.964;2023-05-02T01:25:48;3.03;;;2.40;;
29214;SDS011;16252;49.816;7.964;2023-05-02T01:28:45;2.60;;;2.40;;
29214;SDS011;16252;49.816;7.964;2023-05-02T01:31:11;2.88;;;2.10;;
29214;SDS011;16252;49.816;7.964;2023-05-02T01:33:39;2.83;;;2.50;;
29214;SDS011;16252;49.816;7.964;2023-05-02T01:36:06;2.90;;;2.65;;
29214;SDS011;16252;49.816;7.964;2023-05-02T01:38:32;2.92;;;2.53;;
29214;SDS011;16252;49.816;7.964;2023-05-02T01:40:59;2.95;;;2.65;;
29214;SDS011;16252;49.816;7.964;2023-05-02T01:45:57;3.13;;;2.17;;
29214;SDS011;16252;49.816;7.964;2023-05-02T01:48:24;3.40;;;2.90;;
29214;SDS011;16252;49.816;7.964;2023-05-02T01:50:52;3.15;;;2.85;;
29214;SDS011;16252;49.816;7.964;2023-05-02T01:53:19;3.10;;;2.90;;
29214;SDS011;16252;49.816;7.964;2023-05-02T01:55:46;4.85;;;3.13;;
29214;SDS011;16252;49.816;7.964;2023-05-02T01:58:13;4.05;;;3.33;;
29214;SDS011;16252;49.816;7.964;2023-05-02T02:00:40;2.97;;;2.58;;
29214;SDS011;16252;49.816;7.964;2023-05-02T02:03:09;3.80;;;3.35;;
29214;SDS011;16252;49.816;7.964;2023-05-02T02:05:36;4.15;;;3.00;;
29214;SDS011;16252;49.816;7.964;2023-05-02T02:08:01;3.75;;;3.20;;
29214;SDS011;16252;49.816;7.964;2023-05-02T02:10:28;3.55;;;3.03;;
29214;SDS011;16252;49.816;7.964;2023-05-02T02:13:05;3.95;;;3.55;;
29214;SDS011;16252;49.816;7.964;2023-05-02T02:15:37;3.90;;;3.50;;
29214;SDS011;16252;49.816;7.964;2023-05-02T02:18:09;4.22;;;3.75;;
29214;SDS011;16252;49.816;7.964;2023-05-02T02:20:37;4.22;;;3.83;;
29214;SDS011;16252;49.816;7.964;2023-05-02T02:23:06;4.40;;;3.58;;
29214;SDS011;16252;49.816;7.964;2023-05-02T02:25:34;3.83;;;3.50;;
29214;SDS011;16252;49.816;7.964;2023-05-02T02:28:00;4.13;;;3.72;;
29214;SDS011;16252;49.816;7.964;2023-05-02T02:30:25;7.30;;;4.03;;
29214;SDS011;16252;49.816;7.964;2023-05-02T02:32:51;4.47;;;4.05;;
29214;SDS011;16252;49.816;7.964;2023-05-02T02:35:16;4.95;;;4.45;;
29214;SDS011;16252;49.816;7.964;2023-05-02T02:37:46;5.18;;;4.50;;
29214;SDS011;16252;49.816;7.964;2023-05-02T02:40:21;5.30;;;4.70;;
29214;SDS011;16252;49.816;7.964;2023-05-02T02:43:02;5.78;;;4.05;;
29214;SDS011;16252;49.816;7.964;2023-05-02T02:46:16;6.93;;;5.03;;
29214;SDS011;16252;49.816;7.964;2023-05-02T02:48:36;4.20;;;3.83;;
29214;SDS011;16252;49.816;7.964;2023-05-02T02:51:24;5.35;;;4.47;;
29214;SDS011;16252;49.816;7.964;2023-05-02T02:56:44;6.35;;;5.07;;
29214;SDS011;16252;49.816;7.964;2023-05-02T02:59:29;6.72;;;6.03;;
29214;SDS011;16252;49.816;7.964;2023-05-02T03:02:03;6.78;;;6.07;;
29214;SDS011;16252;49.816;7.964;2023-05-02T03:04:33;8.90;;;5.88;;
29214;SDS011;16252;49.816;7.964;2023-05-02T03:07:00;8.93;;;6.30;;
29214;SDS011;16252;49.816;7.964;2023-05-02T03:09:26;9.52;;;7.20;;
29214;SDS011;16252;49.816;7.964;2023-05-02T03:11:54;9.13;;;6.93;;
29214;SDS011;16252;49.816;7.964;2023-05-02T03:14:20;10.18;;;7.18;;
29214;SDS011;16252;49.816;7.964;2023-05-02T03:16:46;10.18;;;6.90;;
29214;SDS011;16252;49.816;7.964;2023-05-02T03:19:11;11.20;;;7.10;;
29214;SDS011;16252;49.816;7.964;2023-05-02T03:21:37;9.50;;;7.88;;
29214;SDS011;16252;49.816;7.964;2023-05-02T03:24:02;9.43;;;7.57;;
29214;SDS011;16252;49.816;7.964;2023-05-02T03:26:28;9.57;;;7.72;;
29214;SDS011;16252;49.816;7.964;2023-05-02T03:28:54;9.70;;;7.82;;
29214;SDS011;16252;49.816;7.964;2023-05-02T03:31:20;9.23;;;7.45;;
29214;SDS011;16252;49.816;7.964;2023-05-02T03:33:47;9.98;;;7.05;;
29214;SDS011;16252;49.816;7.964;2023-05-02T03:36:13;8.40;;;6.78;;
29214;SDS011;16252;49.816;7.964;2023-05-02T03:38:39;8.40;;;7.35;;
29214;SDS011;16252;49.816;7.964;2023-05-02T03:41:04;8.75;;;7.03;;
29214;SDS011;16252;49.816;7.964;2023-05-02T03:43:30;8.32;;;7.22;;
29214;SDS011;16252;49.816;7.964;2023-05-02T03:45:55;9.75;;;7.45;;
29214;SDS011;16252;49.816;7.964;2023-05-02T03:48:20;8.57;;;6.97;;
29214;SDS011;16252;49.816;7.964;2023-05-02T03:50:46;8.85;;;7.50;;
29214;SDS011;16252;49.816;7.964;2023-05-02T03:53:12;10.38;;;7.90;;
29214;SDS011;16252;49.816;7.964;2023-05-02T03:55:40;9.60;;;7.93;;
29214;SDS011;16252;49.816;7.964;2023-05-02T03:58:06;10.75;;;8.00;;
29214;SDS011;16252;49.816;7.964;2023-05-02T04:00:31;11.07;;;7.65;;
29214;SDS011;16252;49.816;7.964;2023-05-02T04:02:57;11.60;;;8.60;;
29214;SDS011;16252;49.816;7.964;2023-05-02T04:05:25;10.88;;;8.07;;
29214;SDS011;16252;49.816;7.964;2023-05-02T04:07:50;12.50;;;9.70;;
29214;SDS011;16252;49.816;7.964;2023-05-02T04:10:15;10.68;;;8.75;;
29214;SDS011;16252;49.816;7.964;2023-05-02T04:12:42;10.43;;;7.93;;
29214;SDS011;16252;49.816;7.964;2023-05-02T04:15:07;10.90;;;9.13;;
29214;SDS011;16252;49.816;7.964;2023-05-02T04:17:34;9.95;;;8.05;;
29214;SDS011;16252;49.816;7.964;2023-05-02T04:19:59;9.95;;;8.40;;
29214;SDS011;16252;49.816;7.964;2023-05-02T04:22:25;10.70;;;8.82;;
29214;SDS011;16252;49.816;7.964;2023-05-02T04:24:50;12.60;;;9.48;;
29214;SDS011;16252;49.816;7.964;2023-05-02T04:27:15;12.10;;;8.75;;
29214;SDS011;16252;49.816;7.964;2023-05-02T04:29:40;11.25;;;8.63;;
29214;SDS011;16252;49.816;7.964;2023-05-02T04:32:06;10.55;;;9.45;;
29214;SDS011;16252;49.816;7.964;2023-05-02T04:34:31;11.52;;;9.52;;
29214;SDS011;16252;49.816;7.964;2023-05-02T04:36:56;13.82;;;10.65;;
29214;SDS011;16252;49.816;7.964;2023-05-02T04:39:22;14.40;;;10.50;;
29214;SDS011;16252;49.816;7.964;2023-05-02T04:41:47;15.77;;;11.68;;
29214;SDS011;16252;49.816;7.964;2023-05-02T04:44:12;16.35;;;11.90;;
29214;SDS011;16252;49.816;7.964;2023-05-02T04:46:38;18.77;;;13.27;;
29214;SDS011;16252;49.816;7.964;2023-05-02T04:49:03;15.13;;;11.82;;
29214;SDS011;16252;49.816;7.964;2023-05-02T04:51:28;18.05;;;11.85;;
29214;SDS011;16252;49.816;7.964;2023-05-02T04:53:55;15.50;;;11.00;;
29214;SDS011;16252;49.816;7.964;2023-05-02T04:56:21;12.13;;;10.27;;
29214;SDS011;16252;49.816;7.964;2023-05-02T04:58:46;16.73;;;10.65;;
29214;SDS011;16252;49.816;7.964;2023-05-02T05:01:11;16.65;;;12.00;;
29214;SDS011;16252;49.816;7.964;2023-05-02T05:03:36;19.30;;;13.43;;
29214;SDS011;16252;49.816;7.964;2023-05-02T05:06:02;20.13;;;13.68;;
29214;SDS011;16252;49.816;7.964;2023-05-02T05:08:27;17.35;;;12.88;;
29214;SDS011;16252;49.816;7.964;2023-05-02T05:10:52;13.75;;;10.50;;
29214;SDS011;16252;49.816;7.964;2023-05-02T05:13:18;13.75;;;9.60;;
29214;SDS011;16252;49.816;7.964;2023-05-02T05:15:43;10.93;;;9.02;;
29214;SDS011;16252;49.816;7.964;2023-05-02T05:18:08;9.88;;;7.95;;
29214;SDS011;16252;49.816;7.964;2023-05-02T05:20:34;12.15;;;8.73;;
29214;SDS011;16252;49.816;7.964;2023-05-02T05:22:59;11.05;;;8.52;;
29214;SDS011;16252;49.816;7.964;2023-05-02T05:25:25;12.98;;;9.95;;
29214;SDS011;16252;49.816;7.964;2023-05-02T05:27:51;13.35;;;9.82;;
29214;SDS011;16252;49.816;7.964;2023-05-02T05:30:17;13.13;;;8.82;;
29214;SDS011;16252;49.816;7.964;2023-05-02T05:32:42;13.00;;;9.32;;
29214;SDS011;16252;49.816;7.964;2023-05-02T05:35:07;13.15;;;10.25;;
29214;SDS011;16252;49.816;7.964;2023-05-02T05:37:33;17.35;;;11.50;;
29214;SDS011;16252;49.816;7.964;2023-05-02T05:40:00;14.15;;;11.23;;
29214;SDS011;16252;49.816;7.964;2023-05-02T05:42:26;14.32;;;10.65;;
29214;SDS011;16252;49.816;7.964;2023-05-02T05:44:51;17.48;;;12.50;;
29214;SDS011;16252;49.816;7.964;2023-05-02T05:47:19;17.15;;;12.48;;
29214;SDS011;16252;49.816;7.964;2023-05-02T05:49:51;19.25;;;13.52;;
29214;SDS011;16252;49.816;7.964;2023-05-02T05:52:17;16.75;;;12.75;;
29214;SDS011;16252;49.816;7.964;2023-05-02T05:54:42;22.35;;;14.63;;
29214;SDS011;16252;49.816;7.964;2023-05-02T05:57:08;22.77;;;16.27;;
29214;SDS011;16252;49.816;7.964;2023-05-02T05:59:36;21.83;;;15.98;;
29214;SDS011;16252;49.816;7.964;2023-05-02T06:02:01;25.98;;;18.13;;
29214;SDS011;16252;49.816;7.964;2023-05-02T06:04:27;27.35;;;18.27;;
29214;SDS011;16252;49.816;7.964;2023-05-02T06:06:53;28.42;;;19.88;;
29214;SDS011;16252;49.816;7.964;2023-05-02T06:09:18;27.50;;;19.92;;
29214;SDS011;16252;49.816;7.964;2023-05-02T06:11:44;31.13;;;20.75;;
29214;SDS011;16252;49.816;7.964;2023-05-02T06:14:09;29.15;;;19.48;;
29214;SDS011;16252;49.816;7.964;2023-05-02T06:16:34;30.17;;;20.27;;
29214;SDS011;16252;49.816;7.964;2023-05-02T06:19:00;35.22;;;23.02;;
29214;SDS011;16252;49.816;7.964;2023-05-02T06:21:25;34.33;;;21.85;;
29214;SDS011;16252;49.816;7.964;2023-05-02T06:23:51;31.30;;;20.77;;
29214;SDS011;16252;49.816;7.964;2023-05-02T06:26:16;27.63;;;20.13;;
29214;SDS011;16252;49.816;7.964;2023-05-02T06:28:42;29.30;;;21.10;;
29214;SDS011;16252;49.816;7.964;2023-05-02T06:31:07;30.67;;;21.00;;
29214;SDS011;16252;49.816;7.964;2023-05-02T06:33:33;31.75;;;20.65;;
29214;SDS011;16252;49.816;7.964;2023-05-02T06:35:58;32.95;;;21.40;;
29214;SDS011;16252;49.816;7.964;2023-05-02T06:38:24;33.05;;;20.95;;
29214;SDS011;16252;49.816;7.964;2023-05-02T06:40:49;28.10;;;20.30;;
29214;SDS011;16252;49.816;7.964;2023-05-02T06:43:15;29.70;;;20.42;;
29214;SDS011;16252;49.816;7.964;2023-05-02T06:45:41;28.10;;;19.95;;
29214;SDS011;16252;49.816;7.964;2023-05-02T06:48:07;28.05;;;19.48;;
29214;SDS011;16252;49.816;7.964;2023-05-02T06:50:33;30.30;;;20.15;;
29214;SDS011;16252;49.816;7.964;2023-05-02T06:52:58;29.90;;;20.55;;
29214;SDS011;16252;49.816;7.964;2023-05-02T06:55:24;28.42;;;20.33;;
29214;SDS011;16252;49.816;7.964;2023-05-02T06:57:50;28.00;;;19.17;;
29214;SDS011;16252;49.816;7.964;2023-05-02T07:00:16;27.48;;;19.58;;
29214;SDS011;16252;49.816;7.964;2023-05-02T07:02:43;26.52;;;19.00;;
29214;SDS011;16252;49.816;7.964;2023-05-02T07:05:09;32.47;;;20.30;;
29214;SDS011;16252;49.816;7.964;2023-05-02T07:07:34;28.42;;;19.42;;
29214;SDS011;16252;49.816;7.964;2023-05-02T07:10:00;27.13;;;18.73;;
29214;SDS011;16252;49.816;7.964;2023-05-02T07:12:25;25.65;;;18.17;;
29214;SDS011;16252;49.816;7.964;2023-05-02T07:14:50;23.88;;;17.23;;
29214;SDS011;16252;49.816;7.964;2023-05-02T07:17:16;24.58;;;18.27;;
29214;SDS011;16252;49.816;7.964;2023-05-02T07:19:41;23.63;;;16.40;;
29214;SDS011;16252;49.816;7.964;2023-05-02T07:22:06;22.17;;;16.42;;
29214;SDS011;16252;49.816;7.964;2023-05-02T07:24:32;20.58;;;14.30;;
29214;SDS011;16252;49.816;7.964;2023-05-02T07:26:57;22.63;;;15.45;;
29214;SDS011;16252;49.816;7.964;2023-05-02T07:29:22;23.00;;;15.75;;
29214;SDS011;16252;49.816;7.964;2023-05-02T07:31:47;29.40;;;18.33;;
29214;SDS011;16252;49.816;7.964;2023-05-02T07:34:13;24.27;;;16.75;;
29214;SDS011;16252;49.816;7.964;2023-05-02T07:36:39;30.02;;;18.70;;
29214;SDS011;16252;49.816;7.964;2023-05-02T07:39:04;20.83;;;14.63;;
29214;SDS011;16252;49.816;7.964;2023-05-02T07:41:29;20.48;;;12.57;;
29214;SDS011;16252;49.816;7.964;2023-05-02T07:43:55;17.90;;;12.20;;
29214;SDS011;16252;49.816;7.964;2023-05-02T07:46:21;18.60;;;12.30;;
29214;SDS011;16252;49.816;7.964;2023-05-02T07:48:47;18.67;;;12.32;;
29214;SDS011;16252;49.816;7.964;2023-05-02T07:51:12;15.52;;;10.15;;
29214;SDS011;16252;49.816;7.964;2023-05-02T07:53:37;11.02;;;7.80;;
29214;SDS011;16252;49.816;7.964;2023-05-02T07:56:03;11.40;;;7.43;;
29214;SDS011;16252;49.816;7.964;2023-05-02T07:58:31;11.52;;;7.30;;
29214;SDS011;16252;49.816;7.964;2023-05-02T08:00:56;10.00;;;6.75;;
29214;SDS011;16252;49.816;7.964;2023-05-02T08:03:22;8.85;;;6.00;;
29214;SDS011;16252;49.816;7.964;2023-05-02T08:05:47;12.00;;;7.25;;
29214;SDS011;16252;49.816;7.964;2023-05-02T08:08:12;12.43;;;7.20;;
29214;SDS011;16252;49.816;7.964;2023-05-02T08:10:38;13.88;;;7.93;;
29214;SDS011;16252;49.816;7.964;2023-05-02T08:13:03;10.48;;;7.10;;
29214;SDS011;16252;49.816;7.964;2023-05-02T08:15:28;11.50;;;7.55;;
29214;SDS011;16252;49.816;7.964;2023-05-02T08:17:54;11.90;;;7.93;;
29214;SDS011;16252;49.816;7.964;2023-05-02T08:20:20;13.98;;;7.35;;
29214;SDS011;16252;49.816;7.964;2023-05-02T08:22:46;12.60;;;7.38;;
29214;SDS011;16252;49.816;7.964;2023-05-02T08:25:12;10.73;;;7.18;;
29214;SDS011;16252;49.816;7.964;2023-05-02T08:27:37;13.05;;;8.07;;
29214;SDS011;16252;49.816;7.964;2023-05-02T08:30:02;13.57;;;8.02;;
29214;SDS011;16252;49.816;7.964;2023-05-02T08:32:28;12.25;;;7.38;;
29214;SDS011;16252;49.816;7.964;2023-05-02T08:34:54;11.48;;;7.38;;
29214;SDS011;16252;49.816;7.964;2023-05-02T08:37:20;12.73;;;7.35;;
29214;SDS011;16252;49.816;7.964;2023-05-02T08:39:46;11.25;;;6.97;;
29214;SDS011;16252;49.816;7.964;2023-05-02T08:42:11;10.50;;;6.85;;
29214;SDS011;16252;49.816;7.964;2023-05-02T08:44:36;9.90;;;6.32;;
29214;SDS011;16252;49.816;7.964;2023-05-02T08:47:02;11.10;;;7.18;;
29214;SDS011;16252;49.816;7.964;2023-05-02T08:49:30;11.05;;;6.72;;
29214;SDS011;16252;49.816;7.964;2023-05-02T08:51:57;8.93;;;6.63;;
29214;SDS011;16252;49.816;7.964;2023-05-02T08:54:24;12.95;;;8.35;;
29214;SDS011;16252;49.816;7.964;2023-05-02T08:56:51;12.60;;;7.90;;
29214;SDS011;16252;49.816;7.964;2023-05-02T08:59:18;14.50;;;8.85;;
29214;SDS011;16252;49.816;7.964;2023-05-02T09:01:45;15.07;;;9.25;;
29214;SDS011;16252;49.816;7.964;2023-05-02T09:04:13;14.35;;;8.38;;
29214;SDS011;16252;49.816;7.964;2023-05-02T09:06:38;16.02;;;9.85;;
29214;SDS011;16252;49.816;7.964;2023-05-02T09:09:04;14.88;;;9.40;;
29214;SDS011;16252;49.816;7.964;2023-05-02T09:11:29;13.65;;;8.50;;
29214;SDS011;16252;49.816;7.964;2023-05-02T09:13:55;12.55;;;8.10;;
29214;SDS011;16252;49.816;7.964;2023-05-02T09:16:23;11.57;;;7.18;;
29214;SDS011;16252;49.816;7.964;2023-05-02T09:18:51;11.52;;;7.55;;
29214;SDS011;16252;49.816;7.964;2023-05-02T09:21:22;11.73;;;7.38;;
29214;SDS011;16252;49.816;7.964;2023-05-02T09:23:56;12.70;;;8.00;;
29214;SDS011;16252;49.816;7.964;2023-05-02T09:26:27;11.57;;;7.05;;
29214;SDS011;16252;49.816;7.964;2023-05-02T09:28:58;10.48;;;6.90;;
29214;SDS011;16252;49.816;7.964;2023-05-02T09:31:26;11.35;;;7.63;;
29214;SDS011;16252;49.816;7.964;2023-05-02T09:34:11;12.00;;;6.97;;
29214;SDS011;16252;49.816;7.964;2023-05-02T09:36:38;9.70;;;6.20;;
29214;SDS011;16252;49.816;7.964;2023-05-02T09:39:09;7.72;;;5.40;;
29214;SDS011;16252;49.816;7.964;2023-05-02T09:44:09;8.63;;;5.78;;
29214;SDS011;16252;49.816;7.964;2023-05-02T09:46:55;10.65;;;6.57;;
29214;SDS011;16252;49.816;7.964;2023-05-02T09:49:40;9.43;;;6.05;;
29214;SDS011;16252;49.816;7.964;2023-05-02T09:52:10;8.65;;;5.30;;
29214;SDS011;16252;49.816;7.964;2023-05-02T09:54:36;7.53;;;4.88;;
29214;SDS011;16252;49.816;7.964;2023-05-02T09:57:02;6.93;;;4.57;;
29214;SDS011;16252;49.816;7.964;2023-05-02T09:59:27;6.15;;;4.65;;
29214;SDS011;16252;49.816;7.964;2023-05-02T10:01:53;6.22;;;4.43;;
29214;SDS011;16252;49.816;7.964;2023-05-02T10:04:20;6.07;;;4.53;;
29214;SDS011;16252;49.816;7.964;2023-05-02T10:06:46;6.57;;;4.70;;
29214;SDS011;16252;49.816;7.964;2023-05-02T10:09:15;5.75;;;4.53;;
29214;SDS011;16252;49.816;7.964;2023-05-02T10:11:44;5.50;;;4.00;;
29214;SDS011;16252;49.816;7.964;2023-05-02T10:16:37;5.40;;;4.22;;
29214;SDS011;16252;49.816;7.964;2023-05-02T10:19:16;5.35;;;4.00;;
29214;SDS011;16252;49.816;7.964;2023-05-02T10:21:47;4.88;;;4.05;;
29214;SDS011;16252;49.816;7.964;2023-05-02T10:24:13;5.93;;;3.88;;
29214;SDS011;16252;49.816;7.964;2023-05-02T10:26:40;6.15;;;4.30;;
29214;SDS011;16252;49.816;7.964;2023-05-02T10:29:06;5.75;;;4.68;;
29214;SDS011;16252;49.816;7.964;2023-05-02T10:31:32;7.05;;;4.70;;
29214;SDS011;16252;49.816;7.964;2023-05-02T10:33:58;7.22;;;4.63;;
29214;SDS011;16252;49.816;7.964;2023-05-02T10:36:26;5.72;;;4.18;;
29214;SDS011;16252;49.816;7.964;2023-05-02T10:38:52;6.22;;;4.30;;
29214;SDS011;16252;49.816;7.964;2023-05-02T10:41:19;6.63;;;4.60;;
29214;SDS011;16252;49.816;7.964;2023-05-02T10:43:48;6.22;;;4.38;;
29214;SDS011;16252;49.816;7.964;2023-05-02T10:46:30;6.40;;;4.55;;
29214;SDS011;16252;49.816;7.964;2023-05-02T10:49:02;5.50;;;4.35;;
29214;SDS011;16252;49.816;7.964;2023-05-02T10:51:30;5.25;;;4.10;;
29214;SDS011;16252;49.816;7.964;2023-05-02T10:57:13;5.13;;;3.90;;
29214;SDS011;16252;49.816;7.964;2023-05-02T10:59:32;6.07;;;4.70;;
29214;SDS011;16252;49.816;7.964;2023-05-02T11:01:59;4.80;;;3.85;;
29214;SDS011;16252;49.816;7.964;2023-05-02T11:04:25;4.95;;;4.22;;
29214;SDS011;16252;49.816;7.964;2023-05-02T11:07:27;6.25;;;4.13;;
29214;SDS011;16252;49.816;7.964;2023-05-02T11:09:52;5.63;;;4.05;;
29214;SDS011;16252;49.816;7.964;2023-05-02T11:15:14;4.95;;;3.88;;
29214;SDS011;16252;49.816;7.964;2023-05-02T11:18:02;5.28;;;4.22;;
29214;SDS011;16252;49.816;7.964;2023-05-02T11:20:33;5.13;;;4.10;;
29214;SDS011;16252;49.816;7.964;2023-05-02T11:25:40;5.93;;;4.28;;
29214;SDS011;16252;49.816;7.964;2023-05-02T11:28:37;5.43;;;4.32;;
29214;SDS011;16252;49.816;7.964;2023-05-02T11:30:58;5.85;;;4.57;;
29214;SDS011;16252;49.816;7.964;2023-05-02T11:33:24;5.72;;;4.50;;
29214;SDS011;16252;49.816;7.964;2023-05-02T11:35:50;5.07;;;4.10;;
29214;SDS011;16252;49.816;7.964;2023-05-02T11:38:17;5.95;;;4.70;;
29214;SDS011;16252;49.816;7.964;2023-05-02T11:40:50;6.28;;;4.25;;
29214;SDS011;16252;49.816;7.964;2023-05-02T11:43:17;7.50;;;4.63;;
29214;SDS011;16252;49.816;7.964;2023-05-02T11:45:43;5.97;;;4.28;;
29214;SDS011;16252;49.816;7.964;2023-05-02T11:48:13;4.90;;;4.28;;
29214;SDS011;16252;49.816;7.964;2023-05-02T11:50:45;5.65;;;4.55;;
29214;SDS011;16252;49.816;7.964;2023-05-02T11:53:15;6.30;;;4.47;;
29214;SDS011;16252;49.816;7.964;2023-05-02T11:55:46;6.05;;;4.28;;
29214;SDS011;16252;49.816;7.964;2023-05-02T11:58:13;5.07;;;3.97;;
29214;SDS011;16252;49.816;7.964;2023-05-02T12:00:40;5.70;;;3.85;;
29214;SDS011;16252;49.816;7.964;2023-05-02T12:03:06;4.70;;;3.70;;
29214;SDS011;16252;49.816;7.964;2023-05-02T12:05:31;6.80;;;3.78;;
29214;SDS011;16252;49.816;7.964;2023-05-02T12:07:57;4.82;;;3.85;;
29214;SDS011;16252;49.816;7.964;2023-05-02T12:10:22;5.05;;;3.88;;
29214;SDS011;16252;49.816;7.964;2023-05-02T12:12:47;5.25;;;3.38;;
29214;SDS011;16252;49.816;7.964;2023-05-02T12:15:13;4.40;;;3.45;;
29214;SDS011;16252;49.816;7.964;2023-05-02T12:17:40;5.30;;;3.17;;
29214;SDS011;16252;49.816;7.964;2023-05-02T12:20:07;3.22;;;2.63;;
29214;SDS011;16252;49.816;7.964;2023-05-02T12:22:34;3.85;;;3.10;;
29214;SDS011;16252;49.816;7.964;2023-05-02T12:25:00;3.80;;;2.78;;
29214;SDS011;16252;49.816;7.964;2023-05-02T12:27:27;4.63;;;2.88;;
29214;SDS011;16252;49.816;7.964;2023-05-02T12:29:53;3.80;;;2.67;;
29214;SDS011;16252;49.816;7.964;2023-05-02T12:34:54;2.40;;;2.20;;
29214;SDS011;16252;49.816;7.964;2023-05-02T12:37:23;3.80;;;2.60;;
29214;SDS011;16252;49.816;7.964;2023-05-02T12:39:51;4.20;;;2.42;;
29214;SDS011;16252;49.816;7.964;2023-05-02T12:42:18;3.10;;;2.10;;
29214;SDS011;16252;49.816;7.964;2023-05-02T12:44:46;3.20;;;1.65;;
29214;SDS011;16252;49.816;7.964;2023-05-02T12:47:13;2.40;;;1.92;;
29214;SDS011;16252;49.816;7.964;2023-05-02T12:49:47;2.55;;;1.65;;
29214;SDS011;16252;49.816;7.964;2023-05-02T12:52:13;2.05;;;1.38;;
29214;SDS011;16252;49.816;7.964;2023-05-02T12:54:38;1.58;;;1.48;;
29214;SDS011;16252;49.816;7.964;2023-05-02T12:57:04;1.45;;;1.35;;
29214;SDS011;16252;49.816;7.964;2023-05-02T12:59:30;2.00;;;1.30;;
29214;SDS011;16252;49.816;7.964;2023-05-02T13:01:56;1.88;;;1.20;;
29214;SDS011;16252;49.816;7.964;2023-05-02T13:04:32;1.88;;;1.25;;
29214;SDS011;16252;49.816;7.964;2023-05-02T13:07:00;1.50;;;1.40;;
29214;SDS011;16252;49.816;7.964;2023-05-02T13:09:26;3.10;;;1.80;;
29214;SDS011;16252;49.816;7.964;2023-05-02T13:11:51;2.13;;;1.75;;
29214;SDS011;16252;49.816;7.964;2023-05-02T13:14:18;3.10;;;1.83;;
29214;SDS011;16252;49.816;7.964;2023-05-02T13:16:43;2.80;;;2.15;;
29214;SDS011;16252;49.816;7.964;2023-05-02T13:19:08;3.10;;;1.95;;
29214;SDS011;16252;49.816;7.964;2023-05-02T13:21:34;2.60;;;2.10;;
29214;SDS011;16252;49.816;7.964;2023-05-02T13:23:59;2.00;;;1.70;;
29214;SDS011;16252;49.816;7.964;2023-05-02T13:26:25;2.38;;;1.88;;
29214;SDS011;16252;49.816;7.964;2023-05-02T13:28:50;1.92;;;1.70;;
29214;SDS011;16252;49.816;7.964;2023-05-02T13:31:15;3.08;;;2.08;;
29214;SDS011;16252;49.816;7.964;2023-05-02T13:33:41;2.38;;;2.17;;
29214;SDS011;16252;49.816;7.964;2023-05-02T13:36:06;3.80;;;2.47;;
29214;SDS011;16252;49.816;7.964;2023-05-02T13:38:31;4.55;;;2.65;;
29214;SDS011;16252;49.816;7.964;2023-05-02T13:40:58;3.03;;;2.15;;
29214;SDS011;16252;49.816;7.964;2023-05-02T13:43:23;3.08;;;2.08;;
29214;SDS011;16252;49.816;7.964;2023-05-02T13:45:49;2.92;;;2.45;;
29214;SDS011;16252;49.816;7.964;2023-05-02T13:48:16;3.58;;;2.60;;
29214;SDS011;16252;49.816;7.964;2023-05-02T13:50:41;3.40;;;2.60;;
29214;SDS011;16252;49.816;7.964;2023-05-02T13:53:06;3.63;;;2.67;;
29214;SDS011;16252;49.816;7.964;2023-05-02T13:55:31;2.78;;;2.40;;
29214;SDS011;16252;49.816;7.964;2023-05-02T13:57:57;3.65;;;2.92;;
29214;SDS011;16252;49.816;7.964;2023-05-02T14:00:22;2.88;;;2.25;;
29214;SDS011;16252;49.816;7.964;2023-05-02T14:02:47;3.88;;;2.60;;
29214;SDS011;16252;49.816;7.964;2023-05-02T14:05:13;2.35;;;2.00;;
29214;SDS011;16252;49.816;7.964;2023-05-02T14:07:38;2.85;;;2.08;;
29214;SDS011;16252;49.816;7.964;2023-05-02T14:10:04;2.80;;;2.42;;
29214;SDS011;16252;49.816;7.964;2023-05-02T14:12:30;3.80;;;2.47;;
29214;SDS011;16252;49.816;7.964;2023-05-02T14:14:56;2.40;;;2.00;;
29214;SDS011;16252;49.816;7.964;2023-05-02T14:17:21;2.58;;;1.92;;
29214;SDS011;16252;49.816;7.964;2023-05-02T14:19:49;3.15;;;2.15;;
29214;SDS011;16252;49.816;7.964;2023-05-02T14:22:14;3.95;;;1.88;;
29214;SDS011;16252;49.816;7.964;2023-05-02T14:24:40;2.22;;;1.65;;
29214;SDS011;16252;49.816;7.964;2023-05-02T14:27:05;2.95;;;1.85;;
29214;SDS011;16252;49.816;7.964;2023-05-02T14:29:31;2.08;;;1.70;;
29214;SDS011;16252;49.816;7.964;2023-05-02T14:31:57;3.50;;;1.92;;
29214;SDS011;16252;49.816;7.964;2023-05-02T14:34:22;3.40;;;1.73;;
29214;SDS011;16252;49.816;7.964;2023-05-02T14:36:50;3.15;;;2.10;;
29214;SDS011;16252;49.816;7.964;2023-05-02T14:39:16;4.65;;;1.67;;
29214;SDS011;16252;49.816;7.964;2023-05-02T14:41:41;2.80;;;1.95;;
29214;SDS011;16252;49.816;7.964;2023-05-02T14:44:06;3.35;;;2.13;;
29214;SDS011;16252;49.816;7.964;2023-05-02T14:46:32;2.45;;;1.92;;
29214;SDS011;16252;49.816;7.964;2023-05-02T14:48:57;3.22;;;2.00;;
29214;SDS011;16252;49.816;7.964;2023-05-02T14:51:22;4.00;;;1.90;;
29214;SDS011;16252;49.816;7.964;2023-05-02T14:53:47;1.95;;;1.60;;
29214;SDS011;16252;49.816;7.964;2023-05-02T14:56:13;3.25;;;1.73;;
29214;SDS011;16252;49.816;7.964;2023-05-02T14:58:41;2.40;;;1.70;;
29214;SDS011;16252;49.816;7.964;2023-05-02T15:01:12;2.88;;;1.95;;
29214;SDS011;16252;49.816;7.964;2023-05-02T15:03:39;2.72;;;1.98;;
29214;SDS011;16252;49.816;7.964;2023-05-02T15:06:04;2.88;;;1.92;;
29214;SDS011;16252;49.816;7.964;2023-05-02T15:08:29;2.50;;;2.10;;
29214;SDS011;16252;49.816;7.964;2023-05-02T15:10:55;4.63;;;1.88;;
29214;SDS011;16252;49.816;7.964;2023-05-02T15:13:20;2.63;;;1.90;;